sensor_id;sensor_type;location;lat;lon;timestamp;pressure;altitude;pressure_sealevel;temperature
75431;BMP280;64127;51.488;5.462;2024-03-23T00:51:53;100876.19;;;11.83
75431;BMP280;64127;51.488;5.462;2024-03-23T00:54:24;100868.91;;;11.74
75431;BMP280;64127;51.488;5.462;2024-03-23T00:56:55;100879.34;;;11.73
75431;BMP280;64127;51.488;5.462;2024-03-23T00:59:26;100879.78;;;11.62
75431;BMP280;64127;51.488;5.462;2024-03-23T01:01:59;100878.75;;;11.57
75431;BMP280;64127;51.488;5.462;2024-03-23T01:04:30;100882.03;;;11.52
75431;BMP280;64127;51.488;5.462;2024-03-23T01:07:01;100885.09;;;11.40
75431;BMP280;64127;51.488;5.462;2024-03-23T01:09:32;100889.06;;;11.31
75431;BMP280;64127;51.488;5.462;2024-03-23T01:12:03;100888.84;;;11.25
75431;BMP280;64127;51.488;5.462;2024-03-23T01:14:34;100877.34;;;11.21
75431;BMP280;64127;51.488;5.462;2024-03-23T01:17:06;100863.28;;;11.19
75431;BMP280;64127;51.488;5.462;2024-03-23T01:19:37;100859.03;;;11.23
75431;BMP280;64127;51.488;5.462;2024-03-23T01:22:10;100845.63;;;11.15
75431;BMP280;64127;51.488;5.462;2024-03-23T01:24:41;100858.84;;;11.18
75431;BMP280;64127;51.488;5.462;2024-03-23T01:27:11;100863.00;;;11.13
75431;BMP280;64127;51.488;5.462;2024-03-23T01:29:42;100857.75;;;11.13
75431;BMP280;64127;51.488;5.462;2024-03-23T01:32:13;100870.06;;;11.14
75431;BMP280;64127;51.488;5.462;2024-03-23T01:34:45;100868.09;;;11.08
75431;BMP280;64127;51.488;5.462;2024-03-23T01:37:16;100845.59;;;10.93
75431;BMP280;64127;51.488;5.462;2024-03-23T01:39:47;100865.06;;;10.98
75431;BMP280;64127;51.488;5.462;2024-03-23T01:42:18;100865.75;;;10.94
75431;BMP280;64127;51.488;5.462;2024-03-23T01:44:49;100870.00;;;10.90
75431;BMP280;64127;51.488;5.462;2024-03-23T01:47:20;100855.50;;;10.78
75431;BMP280;64127;51.488;5.462;2024-03-23T01:49:51;100845.41;;;10.66
75431;BMP280;64127;51.488;5.462;2024-03-23T01:52:22;100869.63;;;10.81
75431;BMP280;64127;51.488;5.462;2024-03-23T01:54:53;100856.34;;;10.77
75431;BMP280;64127;51.488;5.462;2024-03-23T01:57:24;100840.25;;;10.67
75431;BMP280;64127;51.488;5.462;2024-03-23T01:59:56;100850.84;;;10.71
75431;BMP280;64127;51.488;5.462;2024-03-23T02:02:27;100849.75;;;10.65
75431;BMP280;64127;51.488;5.462;2024-03-23T02:04:58;100837.19;;;10.57
75431;BMP280;64127;51.488;5.462;2024-03-23T02:07:29;100839.00;;;10.58
75431;BMP280;64127;51.488;5.462;2024-03-23T02:10:01;100842.22;;;10.52
75431;BMP280;64127;51.488;5.462;2024-03-23T02:12:32;100844.72;;;10.49
75431;BMP280;64127;51.488;5.462;2024-03-23T02:15:04;100850.63;;;10.44
75431;BMP280;64127;51.488;5.462;2024-03-23T02:17:35;100859.09;;;10.38
75431;BMP280;64127;51.488;5.462;2024-03-23T02:20:07;100844.84;;;10.32
75431;BMP280;64127;51.488;5.462;2024-03-23T02:22:39;100840.28;;;10.26
75431;BMP280;64127;51.488;5.462;2024-03-23T02:25:10;100839.28;;;10.24
75431;BMP280;64127;51.488;5.462;2024-03-23T02:27:41;100821.81;;;10.23
75431;BMP280;64127;51.488;5.462;2024-03-23T02:30:12;100822.63;;;10.22
75431;BMP280;64127;51.488;5.462;2024-03-23T02:32:43;100824.34;;;10.22
75431;BMP280;64127;51.488;5.462;2024-03-23T02:35:14;100817.41;;;10.22
75431;BMP280;64127;51.488;5.462;2024-03-23T02:37:46;100817.66;;;10.28
75431;BMP280;64127;51.488;5.462;2024-03-23T02:40:20;100817.53;;;10.25
75431;BMP280;64127;51.488;5.462;2024-03-23T02:42:52;100803.47;;;10.23
75431;BMP280;64127;51.488;5.462;2024-03-23T02:45:23;100815.34;;;10.36
75431;BMP280;64127;51.488;5.462;2024-03-23T02:47:54;100816.25;;;10.36
75431;BMP280;64127;51.488;5.462;2024-03-23T02:50:25;100819.69;;;10.35
75431;BMP280;64127;51.488;5.462;2024-03-23T02:52:56;100814.56;;;10.38
75431;BMP280;64127;51.488;5.462;2024-03-23T02:55:27;100808.59;;;10.41
75431;BMP280;64127;51.488;5.462;2024-03-23T02:57:58;100811.25;;;10.42
75431;BMP280;64127;51.488;5.462;2024-03-23T03:00:32;100816.25;;;10.36
75431;BMP280;64127;51.488;5.462;2024-03-23T03:03:03;100812.69;;;10.34
75431;BMP280;64127;51.488;5.462;2024-03-23T03:05:35;100815.31;;;10.34
75431;BMP280;64127;51.488;5.462;2024-03-23T03:08:06;100816.25;;;10.36
75431;BMP280;64127;51.488;5.462;2024-03-23T03:10:37;100818.03;;;10.37
75431;BMP280;64127;51.488;5.462;2024-03-23T03:13:08;100820.59;;;10.36
75431;BMP280;64127;51.488;5.462;2024-03-23T03:15:42;100815.44;;;10.37
75431;BMP280;64127;51.488;5.462;2024-03-23T03:18:13;100816.03;;;10.32
75431;BMP280;64127;51.488;5.462;2024-03-23T03:20:44;100822.84;;;10.27
75431;BMP280;64127;51.488;5.462;2024-03-23T03:23:16;100818.34;;;10.24
75431;BMP280;64127;51.488;5.462;2024-03-23T03:25:48;100824.34;;;10.22
75431;BMP280;64127;51.488;5.462;2024-03-23T03:28:20;100820.59;;;10.15
75431;BMP280;64127;51.488;5.462;2024-03-23T03:30:51;100817.88;;;10.13
75431;BMP280;64127;51.488;5.462;2024-03-23T03:33:22;100809.84;;;10.09
75431;BMP280;64127;51.488;5.462;2024-03-23T03:35:54;100812.38;;;10.07
75431;BMP280;64127;51.488;5.462;2024-03-23T03:38:25;100813.97;;;10.04
75431;BMP280;64127;51.488;5.462;2024-03-23T03:40:56;100805.03;;;9.99
75431;BMP280;64127;51.488;5.462;2024-03-23T03:43:29;100804.00;;;9.95
75431;BMP280;64127;51.488;5.462;2024-03-23T03:46:01;100810.97;;;9.95
75431;BMP280;64127;51.488;5.462;2024-03-23T03:48:33;100810.03;;;9.93
75431;BMP280;64127;51.488;5.462;2024-03-23T03:51:05;100797.66;;;9.90
75431;BMP280;64127;51.488;5.462;2024-03-23T03:53:36;100800.25;;;9.89
75431;BMP280;64127;51.488;5.462;2024-03-23T03:56:07;100800.25;;;9.89
75431;BMP280;64127;51.488;5.462;2024-03-23T03:58:38;100797.66;;;9.90
75431;BMP280;64127;51.488;5.462;2024-03-23T04:01:10;100796.59;;;9.85
75431;BMP280;64127;51.488;5.462;2024-03-23T04:03:43;100785.78;;;9.78
75431;BMP280;64127;51.488;5.462;2024-03-23T04:06:20;100802.41;;;9.78
75431;BMP280;64127;51.488;5.462;2024-03-23T04:08:51;100809.13;;;9.73
75431;BMP280;64127;51.488;5.462;2024-03-23T04:11:22;100808.41;;;9.76
75431;BMP280;64127;51.488;5.462;2024-03-23T04:13:53;100803.91;;;9.73
75431;BMP280;64127;51.488;5.462;2024-03-23T04:16:29;100803.00;;;9.73
75431;BMP280;64127;51.488;5.462;2024-03-23T04:19:01;100806.34;;;9.68
75431;BMP280;64127;51.488;5.462;2024-03-23T04:21:32;100804.53;;;9.67
75431;BMP280;64127;51.488;5.462;2024-03-23T04:24:04;100788.59;;;9.61
75431;BMP280;64127;51.488;5.462;2024-03-23T04:26:44;100791.25;;;9.63
75431;BMP280;64127;51.488;5.462;2024-03-23T04:29:15;100804.69;;;9.71
75431;BMP280;64127;51.488;5.462;2024-03-23T04:31:46;100801.84;;;9.66
75431;BMP280;64127;51.488;5.462;2024-03-23T04:34:17;100796.31;;;9.58
75431;BMP280;64127;51.488;5.462;2024-03-23T04:36:48;100785.41;;;9.49
75431;BMP280;64127;51.488;5.462;2024-03-23T04:39:19;100793.34;;;9.51
75431;BMP280;64127;51.488;5.462;2024-03-23T04:41:50;100795.97;;;9.51
75431;BMP280;64127;51.488;5.462;2024-03-23T04:44:21;100804.50;;;9.47
75431;BMP280;64127;51.488;5.462;2024-03-23T04:46:52;100804.34;;;9.44
75431;BMP280;64127;51.488;5.462;2024-03-23T04:49:23;100806.75;;;9.39
75431;BMP280;64127;51.488;5.462;2024-03-23T04:51:55;100796.03;;;9.33
75431;BMP280;64127;51.488;5.462;2024-03-23T04:54:25;100803.06;;;9.34
75431;BMP280;64127;51.488;5.462;2024-03-23T04:56:56;100805.59;;;9.33
75431;BMP280;64127;51.488;5.462;2024-03-23T04:59:28;100805.59;;;9.33
75431;BMP280;64127;51.488;5.462;2024-03-23T05:01:59;100799.19;;;9.26
75431;BMP280;64127;51.488;5.462;2024-03-23T05:04:30;100805.31;;;9.27
75431;BMP280;64127;51.488;5.462;2024-03-23T05:07:03;100799.19;;;9.26
75431;BMP280;64127;51.488;5.462;2024-03-23T05:09:35;100807.25;;;9.31
75431;BMP280;64127;51.488;5.462;2024-03-23T05:12:06;100798.16;;;9.23
75431;BMP280;64127;51.488;5.462;2024-03-23T05:14:37;100795.63;;;9.24
75431;BMP280;64127;51.488;5.462;2024-03-23T05:17:08;100793.69;;;9.20
75431;BMP280;64127;51.488;5.462;2024-03-23T05:19:39;100798.94;;;9.20
75431;BMP280;64127;51.488;5.462;2024-03-23T05:22:10;100797.00;;;9.16
75431;BMP280;64127;51.488;5.462;2024-03-23T05:24:41;100796.78;;;9.31
75431;BMP280;64127;51.488;5.462;2024-03-23T05:27:12;100798.13;;;9.21
75431;BMP280;64127;51.488;5.462;2024-03-23T05:29:43;100816.09;;;9.15
75431;BMP280;64127;51.488;5.462;2024-03-23T05:32:14;100806.28;;;9.09
75431;BMP280;64127;51.488;5.462;2024-03-23T05:34:45;100801.03;;;9.09
75431;BMP280;64127;51.488;5.462;2024-03-23T05:37:16;100810.69;;;9.10
75431;BMP280;64127;51.488;5.462;2024-03-23T05:39:47;100802.84;;;9.10
75431;BMP280;64127;51.488;5.462;2024-03-23T05:42:20;100797.47;;;9.07
75431;BMP280;64127;51.488;5.462;2024-03-23T05:44:52;100796.59;;;9.07
75431;BMP280;64127;51.488;5.462;2024-03-23T05:47:23;100808.00;;;9.09
75431;BMP280;64127;51.488;5.462;2024-03-23T05:49:54;100804.34;;;9.05
75431;BMP280;64127;51.488;5.462;2024-03-23T05:52:25;100790.63;;;8.92
75431;BMP280;64127;51.488;5.462;2024-03-23T05:54:58;100798.22;;;9.05
75431;BMP280;64127;51.488;5.462;2024-03-23T05:57:29;100795.69;;;9.06
75431;BMP280;64127;51.488;5.462;2024-03-23T06:00:00;100791.22;;;9.04
75431;BMP280;64127;51.488;5.462;2024-03-23T06:02:31;100791.22;;;9.04
75431;BMP280;64127;51.488;5.462;2024-03-23T06:05:02;100790.22;;;9.02
75431;BMP280;64127;51.488;5.462;2024-03-23T06:07:33;100793.84;;;9.04
75431;BMP280;64127;51.488;5.462;2024-03-23T06:10:05;100793.13;;;9.08
75431;BMP280;64127;51.488;5.462;2024-03-23T06:12:37;100801.94;;;9.10
75431;BMP280;64127;51.488;5.462;2024-03-23T06:15:08;100801.19;;;9.12
75431;BMP280;64127;51.488;5.462;2024-03-23T06:17:41;100803.88;;;9.14
75431;BMP280;64127;51.488;5.462;2024-03-23T06:20:13;100804.03;;;9.17
75431;BMP280;64127;51.488;5.462;2024-03-23T06:22:44;100824.44;;;9.26
75431;BMP280;64127;51.488;5.462;2024-03-23T06:25:15;100825.59;;;9.32
75431;BMP280;64127;51.488;5.462;2024-03-23T06:27:46;100815.16;;;9.32
75431;BMP280;64127;51.488;5.462;2024-03-23T06:30:17;100823.09;;;9.34
75431;BMP280;64127;51.488;5.462;2024-03-23T06:32:48;100818.63;;;9.31
75431;BMP280;64127;51.488;5.462;2024-03-23T06:35:19;100815.16;;;9.32
75431;BMP280;64127;51.488;5.462;2024-03-23T06:37:50;100819.56;;;9.33
75431;BMP280;64127;51.488;5.462;2024-03-23T06:40:21;100809.88;;;9.31
75431;BMP280;64127;51.488;5.462;2024-03-23T06:42:52;100816.06;;;9.33
75431;BMP280;64127;51.488;5.462;2024-03-23T06:45:23;100818.44;;;9.28
75431;BMP280;64127;51.488;5.462;2024-03-23T06:47:54;100824.44;;;9.26
75431;BMP280;64127;51.488;5.462;2024-03-23T06:50:26;100821.69;;;9.23
75431;BMP280;64127;51.488;5.462;2024-03-23T06:52:59;100819.97;;;9.23
75431;BMP280;64127;51.488;5.462;2024-03-23T06:55:30;100820.25;;;9.29
75431;BMP280;64127;51.488;5.462;2024-03-23T06:58:01;100812.19;;;9.25
75431;BMP280;64127;51.488;5.462;2024-03-23T07:00:32;100817.72;;;9.31
75431;BMP280;64127;51.488;5.462;2024-03-23T07:03:04;100830.03;;;9.33
75431;BMP280;64127;51.488;5.462;2024-03-23T07:05:35;100830.72;;;9.29
75431;BMP280;64127;51.488;5.462;2024-03-23T07:08:06;100823.84;;;9.31
75431;BMP280;64127;51.488;5.462;2024-03-23T07:10:40;100822.03;;;9.30
75431;BMP280;64127;51.488;5.462;2024-03-23T07:13:11;100832.78;;;9.36
75431;BMP280;64127;51.488;5.462;2024-03-23T07:15:42;100836.09;;;9.51
75431;BMP280;64127;51.488;5.462;2024-03-23T07:18:13;100830.56;;;9.64
75431;BMP280;64127;51.488;5.462;2024-03-23T07:20:55;100826.38;;;9.68
75431;BMP280;64127;51.488;5.462;2024-03-23T07:23:29;100834.81;;;9.62
75431;BMP280;64127;51.488;5.462;2024-03-23T07:26:03;100829.16;;;9.52
75431;BMP280;64127;51.488;5.462;2024-03-23T07:28:38;100823.63;;;9.46
75431;BMP280;64127;51.488;5.462;2024-03-23T07:31:14;100827.13;;;9.46
75431;BMP280;64127;51.488;5.462;2024-03-23T07:33:48;100835.59;;;9.41
75431;BMP280;64127;51.488;5.462;2024-03-23T07:36:19;100834.16;;;9.47
75431;BMP280;64127;51.488;5.462;2024-03-23T07:38:50;100831.94;;;9.56
75431;BMP280;64127;51.488;5.462;2024-03-23T07:41:21;100829.34;;;9.76
75431;BMP280;64127;51.488;5.462;2024-03-23T07:43:53;100826.94;;;10.01
75431;BMP280;64127;51.488;5.462;2024-03-23T07:46:24;100825.34;;;10.24
75431;BMP280;64127;51.488;5.462;2024-03-23T07:48:56;100826.06;;;10.42
75431;BMP280;64127;51.488;5.462;2024-03-23T07:51:27;100815.25;;;10.55
75431;BMP280;64127;51.488;5.462;2024-03-23T07:53:58;100817.38;;;10.63
75431;BMP280;64127;51.488;5.462;2024-03-23T07:56:29;100817.00;;;10.77
75431;BMP280;64127;51.488;5.462;2024-03-23T07:59:00;100816.84;;;10.94
75431;BMP280;64127;51.488;5.462;2024-03-23T08:01:31;100812.13;;;11.08
75431;BMP280;64127;51.488;5.462;2024-03-23T08:04:02;100818.38;;;11.11
75431;BMP280;64127;51.488;5.462;2024-03-23T08:06:33;100811.41;;;11.12
75431;BMP280;64127;51.488;5.462;2024-03-23T08:09:04;100817.81;;;11.20
75431;BMP280;64127;51.488;5.462;2024-03-23T08:11:35;100810.94;;;11.22
75431;BMP280;64127;51.488;5.462;2024-03-23T08:14:06;100813.72;;;11.27
75431;BMP280;64127;51.488;5.462;2024-03-23T08:16:37;100814.59;;;11.27
75431;BMP280;64127;51.488;5.462;2024-03-23T08:19:08;100807.41;;;11.22
75431;BMP280;64127;51.488;5.462;2024-03-23T08:21:39;100812.59;;;11.20
75431;BMP280;64127;51.488;5.462;2024-03-23T08:24:10;100805.88;;;11.27
75431;BMP280;64127;51.488;5.462;2024-03-23T08:26:41;100810.53;;;11.35
75431;BMP280;64127;51.488;5.462;2024-03-23T08:29:12;100794.63;;;11.31
75431;BMP280;64127;51.488;5.462;2024-03-23T08:31:43;100802.66;;;11.35
75431;BMP280;64127;51.488;5.462;2024-03-23T08:34:14;100803.34;;;11.30
75431;BMP280;64127;51.488;5.462;2024-03-23T08:36:46;100812.50;;;11.41
75431;BMP280;64127;51.488;5.462;2024-03-23T08:39:17;100809.53;;;11.55
75431;BMP280;64127;51.488;5.462;2024-03-23T08:41:48;100801.13;;;11.64
75431;BMP280;64127;51.488;5.462;2024-03-23T08:44:19;100800.22;;;11.63
75431;BMP280;64127;51.488;5.462;2024-03-23T08:46:50;100800.13;;;11.60
75431;BMP280;64127;51.488;5.462;2024-03-23T08:49:21;100800.44;;;11.69
75431;BMP280;64127;51.488;5.462;2024-03-23T08:51:53;100794.75;;;11.57
75431;BMP280;64127;51.488;5.462;2024-03-23T08:54:25;100787.66;;;11.31
75431;BMP280;64127;51.488;5.462;2024-03-23T08:56:58;100803.06;;;11.22
75431;BMP280;64127;51.488;5.462;2024-03-23T08:59:29;100816.56;;;11.09
75431;BMP280;64127;51.488;5.462;2024-03-23T09:02:00;100826.00;;;10.83
75431;BMP280;64127;51.488;5.462;2024-03-23T09:04:31;100846.44;;;10.49
75431;BMP280;64127;51.488;5.462;2024-03-23T09:07:03;100872.88;;;10.13
75431;BMP280;64127;51.488;5.462;2024-03-23T09:09:34;100872.50;;;9.85
75431;BMP280;64127;51.488;5.462;2024-03-23T09:12:05;100876.38;;;9.55
75431;BMP280;64127;51.488;5.462;2024-03-23T09:14:36;100858.78;;;9.33
75431;BMP280;64127;51.488;5.462;2024-03-23T09:17:07;100855.41;;;9.16
75431;BMP280;64127;51.488;5.462;2024-03-23T09:19:39;100826.44;;;9.12
75431;BMP280;64127;51.488;5.462;2024-03-23T09:22:10;100820.59;;;9.18
75431;BMP280;64127;51.488;5.462;2024-03-23T09:24:41;100820.53;;;9.35
75431;BMP280;64127;51.488;5.462;2024-03-23T09:27:12;100812.03;;;9.60
75431;BMP280;64127;51.488;5.462;2024-03-23T09:29:43;100781.22;;;9.72
75431;BMP280;64127;51.488;5.462;2024-03-23T09:32:14;100803.47;;;10.23
75431;BMP280;64127;51.488;5.462;2024-03-23T09:34:45;100810.47;;;10.45
75431;BMP280;64127;51.488;5.462;2024-03-23T09:37:16;100812.34;;;10.47
75431;BMP280;64127;51.488;5.462;2024-03-23T09:39:47;100807.94;;;10.46
75431;BMP280;64127;51.488;5.462;2024-03-23T09:42:18;100808.00;;;10.70
75431;BMP280;64127;51.488;5.462;2024-03-23T09:44:51;100804.53;;;10.92
75431;BMP280;64127;51.488;5.462;2024-03-23T09:47:24;100796.50;;;11.11
75431;BMP280;64127;51.488;5.462;2024-03-23T09:49:55;100797.34;;;11.34
75431;BMP280;64127;51.488;5.462;2024-03-23T09:52:27;100789.06;;;11.45
75431;BMP280;64127;51.488;5.462;2024-03-23T09:54:58;100780.56;;;11.52
75431;BMP280;64127;51.488;5.462;2024-03-23T09:57:29;100790.47;;;11.61
75431;BMP280;64127;51.488;5.462;2024-03-23T10:00:00;100785.78;;;11.75
75431;BMP280;64127;51.488;5.462;2024-03-23T10:02:32;100793.34;;;11.91
75431;BMP280;64127;51.488;5.462;2024-03-23T10:05:04;100786.88;;;12.06
75431;BMP280;64127;51.488;5.462;2024-03-23T10:07:35;100785.44;;;12.16
75431;BMP280;64127;51.488;5.462;2024-03-23T10:10:11;100815.97;;;11.87
75431;BMP280;64127;51.488;5.462;2024-03-23T10:12:47;100794.97;;;11.40
75431;BMP280;64127;51.488;5.462;2024-03-23T10:15:24;100795.47;;;11.06
75431;BMP280;64127;51.488;5.462;2024-03-23T10:17:55;100788.72;;;10.90
75431;BMP280;64127;51.488;5.462;2024-03-23T10:20:26;100778.22;;;10.90
75431;BMP280;64127;51.488;5.462;2024-03-23T10:22:57;100791.16;;;11.08
75431;BMP280;64127;51.488;5.462;2024-03-23T10:25:29;100794.19;;;11.18
75431;BMP280;64127;51.488;5.462;2024-03-23T10:28:00;100786.34;;;11.20
75431;BMP280;64127;51.488;5.462;2024-03-23T10:30:32;100769.06;;;11.25
75431;BMP280;64127;51.488;5.462;2024-03-23T10:33:10;100786.22;;;11.39
75431;BMP280;64127;51.488;5.462;2024-03-23T10:35:42;100793.00;;;11.58
75431;BMP280;64127;51.488;5.462;2024-03-23T10:38:14;100779.56;;;11.73
75431;BMP280;64127;51.488;5.462;2024-03-23T10:40:45;100772.81;;;12.04
75431;BMP280;64127;51.488;5.462;2024-03-23T10:43:16;100772.63;;;12.25
75431;BMP280;64127;51.488;5.462;2024-03-23T10:45:49;100778.06;;;12.31
75431;BMP280;64127;51.488;5.462;2024-03-23T10:48:20;100774.84;;;12.40
75431;BMP280;64127;51.488;5.462;2024-03-23T10:50:53;100764.91;;;12.58
75431;BMP280;64127;51.488;5.462;2024-03-23T10:53:27;100766.34;;;12.75
75431;BMP280;64127;51.488;5.462;2024-03-23T10:55:59;100754.59;;;12.92
75431;BMP280;64127;51.488;5.462;2024-03-23T10:58:38;100762.94;;;13.07
75431;BMP280;64127;51.488;5.462;2024-03-23T11:01:13;100767.88;;;12.97
75431;BMP280;64127;51.488;5.462;2024-03-23T11:03:46;100757.19;;;12.91
75431;BMP280;64127;51.488;5.462;2024-03-23T11:06:38;100763.03;;;12.82
75431;BMP280;64127;51.488;5.462;2024-03-23T11:09:42;100755.19;;;13.12
75431;BMP280;64127;51.488;5.462;2024-03-23T11:15:05;100740.16;;;13.08
75431;BMP280;64127;51.488;5.462;2024-03-23T11:17:41;100750.06;;;13.15
75431;BMP280;64127;51.488;5.462;2024-03-23T11:20:12;100757.94;;;13.15
75431;BMP280;64127;51.488;5.462;2024-03-23T11:22:49;100750.31;;;12.96
75431;BMP280;64127;51.488;5.462;2024-03-23T11:25:25;100738.13;;;12.99
75431;BMP280;64127;51.488;5.462;2024-03-23T11:28:12;100750.13;;;13.18
75431;BMP280;64127;51.488;5.462;2024-03-23T11:30:43;100729.78;;;13.12
75431;BMP280;64127;51.488;5.462;2024-03-23T11:33:14;100749.34;;;13.22
75431;BMP280;64127;51.488;5.462;2024-03-23T11:35:46;100758.28;;;13.27
75431;BMP280;64127;51.488;5.462;2024-03-23T11:38:18;100767.00;;;13.25
75431;BMP280;64127;51.488;5.462;2024-03-23T11:40:50;100768.16;;;13.06
75431;BMP280;64127;51.488;5.462;2024-03-23T11:43:21;100745.78;;;12.92
75431;BMP280;64127;51.488;5.462;2024-03-23T11:45:53;100772.72;;;12.83
75431;BMP280;64127;51.488;5.462;2024-03-23T11:48:25;100752.03;;;12.65
75431;BMP280;64127;51.488;5.462;2024-03-23T11:50:58;100773.25;;;12.45
75431;BMP280;64127;51.488;5.462;2024-03-23T11:53:29;100749.56;;;12.16
75431;BMP280;64127;51.488;5.462;2024-03-23T11:56:01;100770.00;;;12.00
75431;BMP280;64127;51.488;5.462;2024-03-23T11:58:34;100766.03;;;11.86
75431;BMP280;64127;51.488;5.462;2024-03-23T12:01:10;100771.75;;;11.74
75431;BMP280;64127;51.488;5.462;2024-03-23T12:03:44;100775.53;;;11.58
75431;BMP280;64127;51.488;5.462;2024-03-23T12:06:20;100776.75;;;11.44
75431;BMP280;64127;51.488;5.462;2024-03-23T12:08:51;100772.63;;;11.27
75431;BMP280;64127;51.488;5.462;2024-03-23T12:11:22;100782.69;;;11.15
75431;BMP280;64127;51.488;5.462;2024-03-23T12:13:59;100777.97;;;11.06
75431;BMP280;64127;51.488;5.462;2024-03-23T12:16:30;100766.13;;;10.94
75431;BMP280;64127;51.488;5.462;2024-03-23T12:19:05;100776.50;;;10.91
75431;BMP280;64127;51.488;5.462;2024-03-23T12:21:36;100759.91;;;11.14
75431;BMP280;64127;51.488;5.462;2024-03-23T12:24:08;100766.53;;;11.52
75431;BMP280;64127;51.488;5.462;2024-03-23T12:26:39;100759.31;;;11.70
75431;BMP280;64127;51.488;5.462;2024-03-23T12:29:10;100754.06;;;11.70
75431;BMP280;64127;51.488;5.462;2024-03-23T12:31:42;100743.56;;;11.70
75431;BMP280;64127;51.488;5.462;2024-03-23T12:34:13;100766.09;;;11.63
75431;BMP280;64127;51.488;5.462;2024-03-23T12:36:44;100743.72;;;11.49
75431;BMP280;64127;51.488;5.462;2024-03-23T12:39:15;100717.22;;;11.18
75431;BMP280;64127;51.488;5.462;2024-03-23T12:41:46;100752.53;;;11.51
75431;BMP280;64127;51.488;5.462;2024-03-23T12:44:17;100740.16;;;11.71
75431;BMP280;64127;51.488;5.462;2024-03-23T12:46:48;100727.75;;;11.68
75431;BMP280;64127;51.488;5.462;2024-03-23T12:49:19;100732.06;;;11.66
75431;BMP280;64127;51.488;5.462;2024-03-23T12:51:55;100729.53;;;11.44
75431;BMP280;64127;51.488;5.462;2024-03-23T12:54:26;100736.97;;;11.32
75431;BMP280;64127;51.488;5.462;2024-03-23T12:56:57;100705.50;;;11.08
75431;BMP280;64127;51.488;5.462;2024-03-23T12:59:28;100731.78;;;11.10
75431;BMP280;64127;51.488;5.462;2024-03-23T13:01:59;100743.72;;;11.02
75431;BMP280;64127;51.488;5.462;2024-03-23T13:04:30;100747.06;;;10.98
75431;BMP280;64127;51.488;5.462;2024-03-23T13:07:02;100730.66;;;11.03
75431;BMP280;64127;51.488;5.462;2024-03-23T13:09:33;100736.19;;;11.35
75431;BMP280;64127;51.488;5.462;2024-03-23T13:12:05;100738.78;;;11.58
75431;BMP280;64127;51.488;5.462;2024-03-23T13:14:36;100729.25;;;11.86
75431;BMP280;64127;51.488;5.462;2024-03-23T13:17:07;100717.47;;;12.00
75431;BMP280;64127;51.488;5.462;2024-03-23T13:19:39;100737.50;;;12.23
75431;BMP280;64127;51.488;5.462;2024-03-23T13:22:10;100718.56;;;12.33
75431;BMP280;64127;51.488;5.462;2024-03-23T13:24:42;100720.53;;;12.40
75431;BMP280;64127;51.488;5.462;2024-03-23T13:27:13;100723.63;;;12.27
75431;BMP280;64127;51.488;5.462;2024-03-23T13:29:44;100742.47;;;12.14
75431;BMP280;64127;51.488;5.462;2024-03-23T13:32:17;100732.59;;;12.07
75431;BMP280;64127;51.488;5.462;2024-03-23T13:34:49;100731.25;;;11.93
75431;BMP280;64127;51.488;5.462;2024-03-23T13:37:21;100717.00;;;11.85
75431;BMP280;64127;51.488;5.462;2024-03-23T13:39:52;100715.88;;;11.78
75431;BMP280;64127;51.488;5.462;2024-03-23T13:42:23;100706.34;;;11.82
75431;BMP280;64127;51.488;5.462;2024-03-23T13:44:56;100704.59;;;11.81
75431;BMP280;64127;51.488;5.462;2024-03-23T13:47:27;100691.06;;;11.70
75431;BMP280;64127;51.488;5.462;2024-03-23T13:49:58;100697.84;;;11.63
75431;BMP280;64127;51.488;5.462;2024-03-23T13:52:30;100699.19;;;11.52
75431;BMP280;64127;51.488;5.462;2024-03-23T13:55:02;100681.88;;;11.32
75431;BMP280;64127;51.488;5.462;2024-03-23T13:57:33;100692.38;;;11.32
75431;BMP280;64127;51.488;5.462;2024-03-23T14:00:08;100700.13;;;11.29
75431;BMP280;64127;51.488;5.462;2024-03-23T14:02:39;100688.69;;;11.27
75431;BMP280;64127;51.488;5.462;2024-03-23T14:05:10;100678.28;;;11.30
75431;BMP280;64127;51.488;5.462;2024-03-23T14:07:41;100678.09;;;11.49
75431;BMP280;64127;51.488;5.462;2024-03-23T14:10:13;100677.63;;;11.61
75431;BMP280;64127;51.488;5.462;2024-03-23T14:12:44;100672.91;;;11.51
75431;BMP280;64127;51.488;5.462;2024-03-23T14:15:15;100669.50;;;11.53
75431;BMP280;64127;51.488;5.462;2024-03-23T14:17:46;100672.53;;;11.65
75431;BMP280;64127;51.488;5.462;2024-03-23T14:20:17;100668.03;;;11.87
75431;BMP280;64127;51.488;5.462;2024-03-23T14:22:52;100663.56;;;12.11
75431;BMP280;64127;51.488;5.462;2024-03-23T14:25:23;100665.91;;;12.30
75431;BMP280;64127;51.488;5.462;2024-03-23T14:27:58;100657.47;;;12.40
75431;BMP280;64127;51.488;5.462;2024-03-23T14:30:28;100651.06;;;12.60
75431;BMP280;64127;51.488;5.462;2024-03-23T14:32:59;100651.53;;;12.76
75431;BMP280;64127;51.488;5.462;2024-03-23T14:35:30;100661.53;;;12.89
75431;BMP280;64127;51.488;5.462;2024-03-23T14:38:04;100649.72;;;13.04
75431;BMP280;64127;51.488;5.462;2024-03-23T14:40:35;100648.28;;;13.15
75431;BMP280;64127;51.488;5.462;2024-03-23T14:43:06;100643.84;;;13.13
75431;BMP280;64127;51.488;5.462;2024-03-23T14:45:37;100632.09;;;13.02
75431;BMP280;64127;51.488;5.462;2024-03-23T14:48:08;100619.66;;;12.96
75431;BMP280;64127;51.488;5.462;2024-03-23T14:50:41;100621.00;;;13.12
75431;BMP280;64127;51.488;5.462;2024-03-23T14:53:12;100619.88;;;13.35
75431;BMP280;64127;51.488;5.462;2024-03-23T14:55:45;100608.56;;;13.39
75431;BMP280;64127;51.488;5.462;2024-03-23T14:58:19;100603.19;;;13.35
75431;BMP280;64127;51.488;5.462;2024-03-23T15:00:50;100622.63;;;13.40
75431;BMP280;64127;51.488;5.462;2024-03-23T15:03:22;100612.13;;;13.41
75431;BMP280;64127;51.488;5.462;2024-03-23T15:05:58;100603.41;;;13.44
75431;BMP280;64127;51.488;5.462;2024-03-23T15:08:33;100614.84;;;13.44
75431;BMP280;64127;51.488;5.462;2024-03-23T15:11:04;100604.25;;;13.43
75431;BMP280;64127;51.488;5.462;2024-03-23T15:13:38;100609.63;;;13.46
75431;BMP280;64127;51.488;5.462;2024-03-23T15:16:09;100632.25;;;13.39
75431;BMP280;64127;51.488;5.462;2024-03-23T15:18:40;100626.69;;;13.27